sensor_id;sensor_type;location;lat;lon;timestamp;P1;durP1;ratioP1;P2;durP2;ratioP2
56419;SDS011;42323;52.170;7.538;2023-06-10T00:00:19;6.97;;;3.80;;
56419;SDS011;42323;52.170;7.538;2023-06-10T00:02:46;5.93;;;3.85;;
56419;SDS011;42323;52.170;7.538;2023-06-10T00:05:13;6.68;;;3.72;;
56419;SDS011;42323;52.170;7.538;2023-06-10T00:07:41;4.85;;;3.38;;
56419;SDS011;42323;52.170;7.538;2023-06-10T00:10:08;6.17;;;3.90;;
56419;SDS011;42323;52.170;7.538;2023-06-10T00:12:36;5.55;;;3.60;;
56419;SDS011;42323;52.170;7.538;2023-06-10T00:15:05;4.70;;;3.53;;
56419;SDS011;42323;52.170;7.538;2023-06-10T00:17:32;5.93;;;3.63;;
56419;SDS011;42323;52.170;7.538;2023-06-10T00:19:59;5.55;;;3.50;;
56419;SDS011;42323;52.170;7.538;2023-06-10T00:22:26;7.43;;;3.92;;
56419;SDS011;42323;52.170;7.538;2023-06-10T00:24:55;6.70;;;3.70;;
56419;SDS011;42323;52.170;7.538;2023-06-10T00:27:24;6.23;;;3.60;;
56419;SDS011;42323;52.170;7.538;2023-06-10T00:29:57;6.78;;;3.55;;
56419;SDS011;42323;52.170;7.538;2023-06-10T00:32:23;5.93;;;3.63;;
56419;SDS011;42323;52.170;7.538;2023-06-10T00:34:50;5.40;;;3.93;;
56419;SDS011;42323;52.170;7.538;2023-06-10T00:37:17;7.05;;;3.88;;
56419;SDS011;42323;52.170;7.538;2023-06-10T00:39:43;6.10;;;3.75;;
56419;SDS011;42323;52.170;7.538;2023-06-10T00:42:10;5.32;;;3.75;;
56419;SDS011;42323;52.170;7.538;2023-06-10T00:44:37;5.95;;;3.55;;
56419;SDS011;42323;52.170;7.538;2023-06-10T00:47:04;5.90;;;3.40;;
56419;SDS011;42323;52.170;7.538;2023-06-10T00:49:32;5.25;;;3.88;;
56419;SDS011;42323;52.170;7.538;2023-06-10T00:51:59;6.13;;;4.00;;
56419;SDS011;42323;52.170;7.538;2023-06-10T00:54:27;6.93;;;4.18;;
56419;SDS011;42323;52.170;7.538;2023-06-10T00:56:54;5.63;;;3.77;;
56419;SDS011;42323;52.170;7.538;2023-06-10T00:59:22;7.65;;;4.07;;
56419;SDS011;42323;52.170;7.538;2023-06-10T01:01:48;6.70;;;3.90;;
56419;SDS011;42323;52.170;7.538;2023-06-10T01:04:15;6.55;;;4.05;;
56419;SDS011;42323;52.170;7.538;2023-06-10T01:15:22;6.38;;;3.92;;
56419;SDS011;42323;52.170;7.538;2023-06-10T01:17:56;6.32;;;4.43;;
56419;SDS011;42323;52.170;7.538;2023-06-10T01:20:31;6.43;;;4.40;;
56419;SDS011;42323;52.170;7.538;2023-06-10T01:22:59;5.85;;;3.90;;
56419;SDS011;42323;52.170;7.538;2023-06-10T01:25:27;6.25;;;4.07;;
56419;SDS011;42323;52.170;7.538;2023-06-10T01:27:55;6.40;;;4.20;;
56419;SDS011;42323;52.170;7.538;2023-06-10T01:30:27;6.88;;;4.20;;
56419;SDS011;42323;52.170;7.538;2023-06-10T01:32:57;7.03;;;4.10;;
56419;SDS011;42323;52.170;7.538;2023-06-10T01:35:26;7.28;;;4.25;;
56419;SDS011;42323;52.170;7.538;2023-06-10T01:37:55;6.17;;;4.00;;
56419;SDS011;42323;52.170;7.538;2023-06-10T01:40:24;7.65;;;4.38;;
56419;SDS011;42323;52.170;7.538;2023-06-10T01:42:52;7.38;;;4.50;;
56419;SDS011;42323;52.170;7.538;2023-06-10T01:45:18;6.45;;;4.18;;
56419;SDS011;42323;52.170;7.538;2023-06-10T01:47:45;7.57;;;4.38;;
56419;SDS011;42323;52.170;7.538;2023-06-10T01:50:11;7.68;;;4.50;;
56419;SDS011;42323;52.170;7.538;2023-06-10T01:52:38;6.65;;;4.10;;
56419;SDS011;42323;52.170;7.538;2023-06-10T01:55:05;6.43;;;4.35;;
56419;SDS011;42323;52.170;7.538;2023-06-10T01:57:32;7.60;;;4.72;;
56419;SDS011;42323;52.170;7.538;2023-06-10T01:59:59;6.32;;;4.32;;
56419;SDS011;42323;52.170;7.538;2023-06-10T02:02:25;6.35;;;4.28;;
56419;SDS011;42323;52.170;7.538;2023-06-10T02:04:52;6.15;;;4.20;;
56419;SDS011;42323;52.170;7.538;2023-06-10T02:07:18;6.63;;;4.30;;
56419;SDS011;42323;52.170;7.538;2023-06-10T02:09:45;7.20;;;4.40;;
56419;SDS011;42323;52.170;7.538;2023-06-10T02:12:14;5.90;;;3.90;;
56419;SDS011;42323;52.170;7.538;2023-06-10T02:14:43;6.90;;;4.30;;
56419;SDS011;42323;52.170;7.538;2023-06-10T02:17:09;6.82;;;4.32;;
56419;SDS011;42323;52.170;7.538;2023-06-10T02:19:39;6.70;;;4.50;;
56419;SDS011;42323;52.170;7.538;2023-06-10T02:22:09;7.55;;;4.78;;
56419;SDS011;42323;52.170;7.538;2023-06-10T02:24:36;7.65;;;4.32;;
56419;SDS011;42323;52.170;7.538;2023-06-10T02:27:04;7.57;;;4.53;;
56419;SDS011;42323;52.170;7.538;2023-06-10T02:29:33;7.90;;;4.60;;
56419;SDS011;42323;52.170;7.538;2023-06-10T02:32:01;7.03;;;4.30;;
56419;SDS011;42323;52.170;7.538;2023-06-10T02:34:29;6.18;;;4.45;;
56419;SDS011;42323;52.170;7.538;2023-06-10T02:36:56;6.60;;;4.60;;
56419;SDS011;42323;52.170;7.538;2023-06-10T02:39:22;7.63;;;4.50;;
56419;SDS011;42323;52.170;7.538;2023-06-10T02:41:49;7.13;;;4.23;;
56419;SDS011;42323;52.170;7.538;2023-06-10T02:44:16;7.07;;;4.97;;
56419;SDS011;42323;52.170;7.538;2023-06-10T02:46:44;7.50;;;4.40;;
56419;SDS011;42323;52.170;7.538;2023-06-10T02:49:11;7.97;;;4.53;;
56419;SDS011;42323;52.170;7.538;2023-06-10T02:51:38;7.20;;;4.70;;
56419;SDS011;42323;52.170;7.538;2023-06-10T02:54:05;6.72;;;4.65;;
56419;SDS011;42323;52.170;7.538;2023-06-10T02:56:32;7.85;;;4.57;;
56419;SDS011;42323;52.170;7.538;2023-06-10T02:58:59;7.25;;;4.40;;
56419;SDS011;42323;52.170;7.538;2023-06-10T03:01:26;5.73;;;4.00;;
56419;SDS011;42323;52.170;7.538;2023-06-10T03:03:53;6.68;;;4.32;;
56419;SDS011;42323;52.170;7.538;2023-06-10T03:06:19;7.85;;;4.40;;
56419;SDS011;42323;52.170;7.538;2023-06-10T03:08:46;6.88;;;4.38;;
56419;SDS011;42323;52.170;7.538;2023-06-10T03:11:12;7.28;;;4.45;;
56419;SDS011;42323;52.170;7.538;2023-06-10T03:13:39;7.57;;;4.40;;
56419;SDS011;42323;52.170;7.538;2023-06-10T03:16:06;6.13;;;4.28;;
56419;SDS011;42323;52.170;7.538;2023-06-10T03:18:34;7.87;;;4.43;;
56419;SDS011;42323;52.170;7.538;2023-06-10T03:21:00;7.63;;;4.25;;
56419;SDS011;42323;52.170;7.538;2023-06-10T03:23:27;7.88;;;5.00;;
56419;SDS011;42323;52.170;7.538;2023-06-10T03:25:53;6.88;;;4.70;;
56419;SDS011;42323;52.170;7.538;2023-06-10T03:28:21;6.63;;;4.63;;
56419;SDS011;42323;52.170;7.538;2023-06-10T03:30:47;7.05;;;4.68;;
56419;SDS011;42323;52.170;7.538;2023-06-10T03:33:14;7.15;;;4.75;;
56419;SDS011;42323;52.170;7.538;2023-06-10T03:35:41;7.55;;;4.20;;
56419;SDS011;42323;52.170;7.538;2023-06-10T03:38:08;6.67;;;4.27;;
56419;SDS011;42323;52.170;7.538;2023-06-10T03:40:34;6.50;;;4.30;;
56419;SDS011;42323;52.170;7.538;2023-06-10T03:43:01;7.40;;;4.30;;
56419;SDS011;42323;52.170;7.538;2023-06-10T03:45:27;5.63;;;4.32;;
56419;SDS011;42323;52.170;7.538;2023-06-10T03:47:54;6.53;;;4.20;;
56419;SDS011;42323;52.170;7.538;2023-06-10T03:50:22;7.32;;;4.55;;
56419;SDS011;42323;52.170;7.538;2023-06-10T03:52:50;5.97;;;4.20;;
56419;SDS011;42323;52.170;7.538;2023-06-10T03:55:17;6.72;;;4.22;;
56419;SDS011;42323;52.170;7.538;2023-06-10T03:57:43;6.25;;;4.05;;
56419;SDS011;42323;52.170;7.538;2023-06-10T04:00:10;7.57;;;4.40;;
56419;SDS011;42323;52.170;7.538;2023-06-10T04:02:38;8.10;;;4.93;;
56419;SDS011;42323;52.170;7.538;2023-06-10T04:05:12;7.10;;;4.43;;
56419;SDS011;42323;52.170;7.538;2023-06-10T04:07:40;7.13;;;4.22;;
56419;SDS011;42323;52.170;7.538;2023-06-10T04:10:08;5.95;;;4.30;;
56419;SDS011;42323;52.170;7.538;2023-06-10T04:12:36;7.63;;;4.60;;
56419;SDS011;42323;52.170;7.538;2023-06-10T04:15:04;5.88;;;4.00;;
56419;SDS011;42323;52.170;7.538;2023-06-10T04:17:31;7.53;;;4.50;;
56419;SDS011;42323;52.170;7.538;2023-06-10T04:19:58;7.68;;;4.70;;
56419;SDS011;42323;52.170;7.538;2023-06-10T04:22:24;8.13;;;4.50;;
56419;SDS011;42323;52.170;7.538;2023-06-10T04:24:51;6.78;;;4.50;;
56419;SDS011;42323;52.170;7.538;2023-06-10T04:27:18;6.80;;;4.13;;
56419;SDS011;42323;52.170;7.538;2023-06-10T04:29:44;6.78;;;4.00;;
56419;SDS011;42323;52.170;7.538;2023-06-10T04:32:11;7.30;;;4.50;;
56419;SDS011;42323;52.170;7.538;2023-06-10T04:34:38;7.03;;;4.25;;
56419;SDS011;42323;52.170;7.538;2023-06-10T04:37:11;6.95;;;4.53;;
56419;SDS011;42323;52.170;7.538;2023-06-10T04:39:37;7.05;;;4.30;;
56419;SDS011;42323;52.170;7.538;2023-06-10T04:42:04;7.43;;;4.35;;
56419;SDS011;42323;52.170;7.538;2023-06-10T04:44:32;7.43;;;4.22;;
56419;SDS011;42323;52.170;7.538;2023-06-10T04:46:58;5.72;;;4.20;;
56419;SDS011;42323;52.170;7.538;2023-06-10T04:49:25;6.63;;;4.22;;
56419;SDS011;42323;52.170;7.538;2023-06-10T04:51:52;7.30;;;4.30;;
56419;SDS011;42323;52.170;7.538;2023-06-10T04:54:18;5.80;;;4.10;;
56419;SDS011;42323;52.170;7.538;2023-06-10T04:56:45;6.03;;;4.32;;
56419;SDS011;42323;52.170;7.538;2023-06-10T04:59:12;6.30;;;4.18;;
56419;SDS011;42323;52.170;7.538;2023-06-10T05:01:40;8.80;;;4.32;;
56419;SDS011;42323;52.170;7.538;2023-06-10T05:04:07;6.00;;;4.07;;
56419;SDS011;42323;52.170;7.538;2023-06-10T05:06:34;7.82;;;4.53;;
56419;SDS011;42323;52.170;7.538;2023-06-10T05:09:02;6.50;;;4.13;;
56419;SDS011;42323;52.170;7.538;2023-06-10T05:11:29;7.47;;;4.25;;
56419;SDS011;42323;52.170;7.538;2023-06-10T05:13:55;6.45;;;4.18;;
56419;SDS011;42323;52.170;7.538;2023-06-10T05:16:22;6.35;;;4.30;;
56419;SDS011;42323;52.170;7.538;2023-06-10T05:18:49;6.22;;;4.38;;
56419;SDS011;42323;52.170;7.538;2023-06-10T05:21:17;6.73;;;4.13;;
56419;SDS011;42323;52.170;7.538;2023-06-10T05:23:44;8.38;;;4.53;;
56419;SDS011;42323;52.170;7.538;2023-06-10T05:26:11;7.73;;;4.70;;
56419;SDS011;42323;52.170;7.538;2023-06-10T05:28:37;7.05;;;3.80;;
56419;SDS011;42323;52.170;7.538;2023-06-10T05:31:04;6.25;;;3.72;;
56419;SDS011;42323;52.170;7.538;2023-06-10T05:33:31;5.20;;;3.83;;
56419;SDS011;42323;52.170;7.538;2023-06-10T05:35:57;6.72;;;4.15;;
56419;SDS011;42323;52.170;7.538;2023-06-10T05:38:24;6.35;;;3.90;;
56419;SDS011;42323;52.170;7.538;2023-06-10T05:40:51;5.93;;;3.70;;
56419;SDS011;42323;52.170;7.538;2023-06-10T05:43:17;6.47;;;3.88;;
56419;SDS011;42323;52.170;7.538;2023-06-10T05:45:44;8.23;;;4.05;;
56419;SDS011;42323;52.170;7.538;2023-06-10T05:48:10;5.65;;;3.58;;
56419;SDS011;42323;52.170;7.538;2023-06-10T05:50:37;4.50;;;3.60;;
56419;SDS011;42323;52.170;7.538;2023-06-10T05:53:06;5.35;;;3.60;;
56419;SDS011;42323;52.170;7.538;2023-06-10T05:55:34;6.07;;;4.20;;
56419;SDS011;42323;52.170;7.538;2023-06-10T05:58:01;6.28;;;3.83;;
56419;SDS011;42323;52.170;7.538;2023-06-10T06:00:27;6.85;;;4.07;;
56419;SDS011;42323;52.170;7.538;2023-06-10T06:02:54;7.85;;;4.03;;
56419;SDS011;42323;52.170;7.538;2023-06-10T06:05:21;6.20;;;4.22;;
56419;SDS011;42323;52.170;7.538;2023-06-10T06:07:47;6.70;;;4.10;;
56419;SDS011;42323;52.170;7.538;2023-06-10T06:10:14;5.60;;;3.67;;
56419;SDS011;42323;52.170;7.538;2023-06-10T06:12:40;6.40;;;4.27;;
56419;SDS011;42323;52.170;7.538;2023-06-10T06:15:07;7.00;;;3.60;;
56419;SDS011;42323;52.170;7.538;2023-06-10T06:17:35;7.47;;;4.70;;
56419;SDS011;42323;52.170;7.538;2023-06-10T06:20:02;5.55;;;3.88;;
56419;SDS011;42323;52.170;7.538;2023-06-10T06:22:29;5.35;;;4.07;;
56419;SDS011;42323;52.170;7.538;2023-06-10T06:24:56;7.47;;;4.03;;
56419;SDS011;42323;52.170;7.538;2023-06-10T06:27:22;5.40;;;3.60;;
56419;SDS011;42323;52.170;7.538;2023-06-10T06:29:49;5.83;;;3.80;;
56419;SDS011;42323;52.170;7.538;2023-06-10T06:32:17;5.17;;;3.30;;
56419;SDS011;42323;52.170;7.538;2023-06-10T06:34:43;6.53;;;3.90;;
56419;SDS011;42323;52.170;7.538;2023-06-10T06:37:10;6.90;;;3.73;;
56419;SDS011;42323;52.170;7.538;2023-06-10T06:39:36;5.63;;;3.70;;
56419;SDS011;42323;52.170;7.538;2023-06-10T06:42:03;5.47;;;3.90;;
56419;SDS011;42323;52.170;7.538;2023-06-10T06:44:30;5.22;;;3.20;;
56419;SDS011;42323;52.170;7.538;2023-06-10T06:46:56;5.00;;;3.30;;
56419;SDS011;42323;52.170;7.538;2023-06-10T06:49:23;6.30;;;3.90;;
56419;SDS011;42323;52.170;7.538;2023-06-10T06:51:50;6.00;;;3.63;;
56419;SDS011;42323;52.170;7.538;2023-06-10T06:54:16;6.00;;;3.40;;
56419;SDS011;42323;52.170;7.538;2023-06-10T06:56:43;5.10;;;3.50;;
56419;SDS011;42323;52.170;7.538;2023-06-10T06:59:09;4.47;;;3.13;;
56419;SDS011;42323;52.170;7.538;2023-06-10T07:01:36;4.75;;;3.25;;
56419;SDS011;42323;52.170;7.538;2023-06-10T07:04:05;6.10;;;3.70;;
56419;SDS011;42323;52.170;7.538;2023-06-10T07:06:32;5.07;;;3.42;;
56419;SDS011;42323;52.170;7.538;2023-06-10T07:09:00;5.23;;;3.17;;
56419;SDS011;42323;52.170;7.538;2023-06-10T07:11:26;5.53;;;3.27;;
56419;SDS011;42323;52.170;7.538;2023-06-10T07:13:53;4.63;;;3.00;;
56419;SDS011;42323;52.170;7.538;2023-06-10T07:16:19;4.57;;;3.23;;
56419;SDS011;42323;52.170;7.538;2023-06-10T07:18:47;5.78;;;3.25;;
56419;SDS011;42323;52.170;7.538;2023-06-10T07:21:14;5.05;;;3.28;;
56419;SDS011;42323;52.170;7.538;2023-06-10T07:23:43;4.25;;;3.22;;
56419;SDS011;42323;52.170;7.538;2023-06-10T07:26:11;4.07;;;3.20;;
56419;SDS011;42323;52.170;7.538;2023-06-10T07:28:39;6.07;;;3.72;;
56419;SDS011;42323;52.170;7.538;2023-06-10T07:31:09;5.30;;;3.10;;
56419;SDS011;42323;52.170;7.538;2023-06-10T07:33:37;4.43;;;3.10;;
56419;SDS011;42323;52.170;7.538;2023-06-10T07:36:05;4.70;;;3.03;;
56419;SDS011;42323;52.170;7.538;2023-06-10T07:38:32;5.18;;;3.10;;
56419;SDS011;42323;52.170;7.538;2023-06-10T07:41:00;6.07;;;3.20;;
56419;SDS011;42323;52.170;7.538;2023-06-10T07:43:26;6.20;;;3.45;;
56419;SDS011;42323;52.170;7.538;2023-06-10T07:45:53;5.65;;;3.25;;
56419;SDS011;42323;52.170;7.538;2023-06-10T07:48:20;6.20;;;3.15;;
56419;SDS011;42323;52.170;7.538;2023-06-10T07:50:47;4.83;;;2.93;;
56419;SDS011;42323;52.170;7.538;2023-06-10T07:53:13;4.20;;;3.20;;
56419;SDS011;42323;52.170;7.538;2023-06-10T07:55:40;4.57;;;3.03;;
56419;SDS011;42323;52.170;7.538;2023-06-10T07:58:06;5.27;;;3.23;;
56419;SDS011;42323;52.170;7.538;2023-06-10T08:00:33;5.00;;;2.90;;
56419;SDS011;42323;52.170;7.538;2023-06-10T08:02:59;6.47;;;3.40;;
56419;SDS011;42323;52.170;7.538;2023-06-10T08:05:26;4.70;;;3.00;;
56419;SDS011;42323;52.170;7.538;2023-06-10T08:07:53;5.40;;;3.08;;
56419;SDS011;42323;52.170;7.538;2023-06-10T08:10:19;6.40;;;3.35;;
56419;SDS011;42323;52.170;7.538;2023-06-10T08:12:46;3.92;;;2.60;;
56419;SDS011;42323;52.170;7.538;2023-06-10T08:15:13;5.20;;;2.80;;
56419;SDS011;42323;52.170;7.538;2023-06-10T08:17:39;5.03;;;3.28;;
56419;SDS011;42323;52.170;7.538;2023-06-10T08:20:06;4.30;;;2.90;;
56419;SDS011;42323;52.170;7.538;2023-06-10T08:22:33;4.78;;;3.20;;
56419;SDS011;42323;52.170;7.538;2023-06-10T08:25:00;4.22;;;3.08;;
56419;SDS011;42323;52.170;7.538;2023-06-10T08:27:26;4.40;;;2.90;;
56419;SDS011;42323;52.170;7.538;2023-06-10T08:29:53;3.92;;;2.88;;
56419;SDS011;42323;52.170;7.538;2023-06-10T08:32:20;4.57;;;2.95;;
56419;SDS011;42323;52.170;7.538;2023-06-10T08:34:47;5.90;;;3.00;;
56419;SDS011;42323;52.170;7.538;2023-06-10T08:37:13;5.63;;;3.27;;
56419;SDS011;42323;52.170;7.538;2023-06-10T08:39:40;4.60;;;3.10;;
56419;SDS011;42323;52.170;7.538;2023-06-10T08:44:56;4.43;;;3.00;;
56419;SDS011;42323;52.170;7.538;2023-06-10T08:47:23;4.60;;;2.90;;
56419;SDS011;42323;52.170;7.538;2023-06-10T08:49:51;5.07;;;3.17;;
56419;SDS011;42323;52.170;7.538;2023-06-10T08:52:20;5.43;;;3.20;;
56419;SDS011;42323;52.170;7.538;2023-06-10T08:55:10;6.13;;;3.22;;
56419;SDS011;42323;52.170;7.538;2023-06-10T08:57:37;4.07;;;3.15;;
56419;SDS011;42323;52.170;7.538;2023-06-10T09:00:05;4.75;;;3.10;;
56419;SDS011;42323;52.170;7.538;2023-06-10T09:02:33;5.97;;;3.20;;
56419;SDS011;42323;52.170;7.538;2023-06-10T09:05:02;5.68;;;3.40;;
56419;SDS011;42323;52.170;7.538;2023-06-10T09:07:31;4.43;;;2.90;;
56419;SDS011;42323;52.170;7.538;2023-06-10T09:10:00;4.93;;;3.03;;
56419;SDS011;42323;52.170;7.538;2023-06-10T09:12:29;5.83;;;3.40;;
56419;SDS011;42323;52.170;7.538;2023-06-10T09:14:56;6.67;;;3.40;;
56419;SDS011;42323;52.170;7.538;2023-06-10T09:17:25;9.13;;;3.80;;
56419;SDS011;42323;52.170;7.538;2023-06-10T09:19:59;6.07;;;3.60;;
56419;SDS011;42323;52.170;7.538;2023-06-10T09:22:26;5.35;;;2.97;;
56419;SDS011;42323;52.170;7.538;2023-06-10T09:25:06;4.50;;;3.20;;
56419;SDS011;42323;52.170;7.538;2023-06-10T09:27:45;4.35;;;3.03;;
56419;SDS011;42323;52.170;7.538;2023-06-10T09:30:31;4.68;;;3.22;;
56419;SDS011;42323;52.170;7.538;2023-06-10T09:33:00;6.15;;;3.35;;
56419;SDS011;42323;52.170;7.538;2023-06-10T09:35:29;6.50;;;3.13;;
56419;SDS011;42323;52.170;7.538;2023-06-10T09:37:57;6.65;;;3.40;;
56419;SDS011;42323;52.170;7.538;2023-06-10T09:40:25;5.00;;;3.08;;
56419;SDS011;42323;52.170;7.538;2023-06-10T09:42:53;4.07;;;3.10;;
56419;SDS011;42323;52.170;7.538;2023-06-10T09:45:28;3.63;;;2.88;;
56419;SDS011;42323;52.170;7.538;2023-06-10T09:47:56;6.23;;;3.20;;
56419;SDS011;42323;52.170;7.538;2023-06-10T09:50:23;5.13;;;3.40;;
56419;SDS011;42323;52.170;7.538;2023-06-10T09:52:50;5.30;;;3.30;;
56419;SDS011;42323;52.170;7.538;2023-06-10T09:55:17;5.47;;;3.47;;
56419;SDS011;42323;52.170;7.538;2023-06-10T09:57:53;5.75;;;3.58;;
56419;SDS011;42323;52.170;7.538;2023-06-10T10:00:25;5.32;;;3.53;;
56419;SDS011;42323;52.170;7.538;2023-06-10T10:02:55;6.23;;;3.40;;
56419;SDS011;42323;52.170;7.538;2023-06-10T10:05:26;5.23;;;3.30;;
56419;SDS011;42323;52.170;7.538;2023-06-10T10:07:53;6.05;;;3.33;;
56419;SDS011;42323;52.170;7.538;2023-06-10T10:10:22;5.97;;;3.20;;
56419;SDS011;42323;52.170;7.538;2023-06-10T10:12:56;4.55;;;3.30;;
56419;SDS011;42323;52.170;7.538;2023-06-10T10:15:24;5.93;;;3.15;;
56419;SDS011;42323;52.170;7.538;2023-06-10T10:18:00;6.43;;;3.22;;
56419;SDS011;42323;52.170;7.538;2023-06-10T10:20:38;4.93;;;3.13;;
56419;SDS011;42323;52.170;7.538;2023-06-10T10:23:18;4.53;;;3.00;;
56419;SDS011;42323;52.170;7.538;2023-06-10T10:25:51;4.75;;;3.10;;
56419;SDS011;42323;52.170;7.538;2023-06-10T10:28:20;3.73;;;2.90;;
56419;SDS011;42323;52.170;7.538;2023-06-10T10:30:51;4.38;;;3.00;;
56419;SDS011;42323;52.170;7.538;2023-06-10T10:33:26;3.83;;;2.70;;
56419;SDS011;42323;52.170;7.538;2023-06-10T10:35:59;5.67;;;3.13;;
56419;SDS011;42323;52.170;7.538;2023-06-10T10:38:27;5.23;;;3.10;;
56419;SDS011;42323;52.170;7.538;2023-06-10T10:40:54;4.70;;;2.97;;
56419;SDS011;42323;52.170;7.538;2023-06-10T10:43:26;5.33;;;3.10;;
56419;SDS011;42323;52.170;7.538;2023-06-10T10:45:57;5.13;;;2.95;;
56419;SDS011;42323;52.170;7.538;2023-06-10T10:48:33;5.27;;;3.10;;
56419;SDS011;42323;52.170;7.538;2023-06-10T10:51:02;4.50;;;2.92;;
56419;SDS011;42323;52.170;7.538;2023-06-10T10:53:29;5.67;;;3.10;;
56419;SDS011;42323;52.170;7.538;2023-06-10T10:58:38;3.83;;;2.72;;
56419;SDS011;42323;52.170;7.538;2023-06-10T11:01:12;4.32;;;2.80;;
56419;SDS011;42323;52.170;7.538;2023-06-10T11:03:45;4.95;;;2.75;;
56419;SDS011;42323;52.170;7.538;2023-06-10T11:06:16;4.50;;;2.65;;
56419;SDS011;42323;52.170;7.538;2023-06-10T11:11:23;3.33;;;2.60;;
56419;SDS011;42323;52.170;7.538;2023-06-10T11:16:28;4.55;;;2.50;;
56419;SDS011;42323;52.170;7.538;2023-06-10T11:18:57;4.07;;;3.03;;
56419;SDS011;42323;52.170;7.538;2023-06-10T11:21:24;4.20;;;2.92;;
56419;SDS011;42323;52.170;7.538;2023-06-10T11:23:57;4.22;;;2.70;;
56419;SDS011;42323;52.170;7.538;2023-06-10T11:31:32;5.13;;;3.00;;
56419;SDS011;42323;52.170;7.538;2023-06-10T11:34:07;4.05;;;2.75;;
56419;SDS011;42323;52.170;7.538;2023-06-10T11:36:38;6.00;;;3.50;;
56419;SDS011;42323;52.170;7.538;2023-06-10T11:39:09;4.10;;;2.80;;
56419;SDS011;42323;52.170;7.538;2023-06-10T11:41:37;4.87;;;2.97;;
56419;SDS011;42323;52.170;7.538;2023-06-10T11:44:09;4.70;;;2.80;;
56419;SDS011;42323;52.170;7.538;2023-06-10T11:46:43;3.50;;;2.80;;
56419;SDS011;42323;52.170;7.538;2023-06-10T11:49:11;3.85;;;2.60;;
56419;SDS011;42323;52.170;7.538;2023-06-10T11:51:38;4.20;;;2.47;;
56419;SDS011;42323;52.170;7.538;2023-06-10T11:54:10;4.18;;;2.80;;
56419;SDS011;42323;52.170;7.538;2023-06-10T11:56:36;3.85;;;2.65;;
56419;SDS011;42323;52.170;7.538;2023-06-10T11:59:04;4.20;;;2.73;;
56419;SDS011;42323;52.170;7.538;2023-06-10T12:01:34;4.32;;;2.75;;
56419;SDS011;42323;52.170;7.538;2023-06-10T12:04:09;3.90;;;2.80;;
56419;SDS011;42323;52.170;7.538;2023-06-10T12:06:41;4.70;;;2.63;;
56419;SDS011;42323;52.170;7.538;2023-06-10T12:11:59;3.38;;;2.28;;
56419;SDS011;42323;52.170;7.538;2023-06-10T12:19:59;3.88;;;2.60;;
56419;SDS011;42323;52.170;7.538;2023-06-10T12:22:27;4.32;;;2.55;;
56419;SDS011;42323;52.170;7.538;2023-06-10T12:25:03;4.80;;;2.53;;
56419;SDS011;42323;52.170;7.538;2023-06-10T12:27:33;3.42;;;2.50;;
56419;SDS011;42323;52.170;7.538;2023-06-10T12:30:01;4.00;;;2.42;;
56419;SDS011;42323;52.170;7.538;2023-06-10T12:32:41;3.60;;;2.67;;
56419;SDS011;42323;52.170;7.538;2023-06-10T12:35:09;3.80;;;2.67;;
56419;SDS011;42323;52.170;7.538;2023-06-10T12:37:39;5.30;;;2.92;;
56419;SDS011;42323;52.170;7.538;2023-06-10T12:40:09;6.10;;;2.80;;
56419;SDS011;42323;52.170;7.538;2023-06-10T12:42:37;3.90;;;2.63;;
56419;SDS011;42323;52.170;7.538;2023-06-10T12:45:05;4.10;;;2.90;;
56419;SDS011;42323;52.170;7.538;2023-06-10T12:47:38;5.00;;;3.13;;
56419;SDS011;42323;52.170;7.538;2023-06-10T12:50:06;5.63;;;3.00;;
56419;SDS011;42323;52.170;7.538;2023-06-10T12:52:34;5.33;;;3.00;;
56419;SDS011;42323;52.170;7.538;2023-06-10T12:55:01;4.70;;;2.97;;
56419;SDS011;42323;52.170;7.538;2023-06-10T12:57:28;5.07;;;2.87;;
56419;SDS011;42323;52.170;7.538;2023-06-10T12:59:56;3.15;;;2.50;;
56419;SDS011;42323;52.170;7.538;2023-06-10T13:02:29;3.10;;;2.53;;
56419;SDS011;42323;52.170;7.538;2023-06-10T13:04:56;4.43;;;2.47;;
56419;SDS011;42323;52.170;7.538;2023-06-10T13:07:22;4.32;;;2.50;;
56419;SDS011;42323;52.170;7.538;2023-06-10T13:09:49;4.20;;;2.65;;
56419;SDS011;42323;52.170;7.538;2023-06-10T13:12:16;3.25;;;2.55;;
56419;SDS011;42323;52.170;7.538;2023-06-10T13:14:50;3.80;;;2.67;;
56419;SDS011;42323;52.170;7.538;2023-06-10T13:17:20;4.10;;;3.00;;
56419;SDS011;42323;52.170;7.538;2023-06-10T13:19:49;4.55;;;2.80;;
56419;SDS011;42323;52.170;7.538;2023-06-10T13:22:16;5.80;;;3.30;;
56419;SDS011;42323;52.170;7.538;2023-06-10T13:24:46;6.25;;;3.40;;
56419;SDS011;42323;52.170;7.538;2023-06-10T13:27:15;5.63;;;3.50;;
56419;SDS011;42323;52.170;7.538;2023-06-10T13:30:10;4.80;;;3.03;;
56419;SDS011;42323;52.170;7.538;2023-06-10T13:32:37;4.70;;;3.00;;
56419;SDS011;42323;52.170;7.538;2023-06-10T13:35:04;4.07;;;2.70;;
56419;SDS011;42323;52.170;7.538;2023-06-10T13:37:32;4.25;;;3.20;;
56419;SDS011;42323;52.170;7.538;2023-06-10T13:40:00;5.33;;;3.10;;
56419;SDS011;42323;52.170;7.538;2023-06-10T13:42:27;3.80;;;2.70;;
56419;SDS011;42323;52.170;7.538;2023-06-10T13:44:55;3.58;;;2.78;;
56419;SDS011;42323;52.170;7.538;2023-06-10T13:47:22;4.90;;;2.70;;
56419;SDS011;42323;52.170;7.538;2023-06-10T13:49:49;4.00;;;2.92;;
56419;SDS011;42323;52.170;7.538;2023-06-10T13:52:16;4.30;;;2.80;;
56419;SDS011;42323;52.170;7.538;2023-06-10T13:54:44;3.45;;;2.80;;
56419;SDS011;42323;52.170;7.538;2023-06-10T13:57:11;4.75;;;2.60;;
56419;SDS011;42323;52.170;7.538;2023-06-10T13:59:38;3.83;;;2.63;;
56419;SDS011;42323;52.170;7.538;2023-06-10T14:02:04;4.13;;;2.90;;
56419;SDS011;42323;52.170;7.538;2023-06-10T14:04:31;3.83;;;2.83;;
56419;SDS011;42323;52.170;7.538;2023-06-10T14:06:58;4.15;;;2.90;;
56419;SDS011;42323;52.170;7.538;2023-06-10T14:09:25;3.60;;;3.15;;
56419;SDS011;42323;52.170;7.538;2023-06-10T14:11:51;3.60;;;2.80;;
56419;SDS011;42323;52.170;7.538;2023-06-10T14:14:18;3.75;;;2.80;;
56419;SDS011;42323;52.170;7.538;2023-06-10T14:16:45;3.28;;;2.80;;
56419;SDS011;42323;52.170;7.538;2023-06-10T14:19:12;4.30;;;2.95;;
56419;SDS011;42323;52.170;7.538;2023-06-10T14:21:38;3.95;;;2.95;;
56419;SDS011;42323;52.170;7.538;2023-06-10T14:24:05;3.67;;;2.90;;
56419;SDS011;42323;52.170;7.538;2023-06-10T14:26:32;3.10;;;2.78;;
56419;SDS011;42323;52.170;7.538;2023-06-10T14:28:59;3.60;;;2.80;;
56419;SDS011;42323;52.170;7.538;2023-06-10T14:31:25;3.75;;;2.80;;
56419;SDS011;42323;52.170;7.538;2023-06-10T14:33:52;3.63;;;2.80;;
56419;SDS011;42323;52.170;7.538;2023-06-10T14:36:19;3.42;;;3.00;;
56419;SDS011;42323;52.170;7.538;2023-06-10T14:38:45;3.60;;;2.70;;
56419;SDS011;42323;52.170;7.538;2023-06-10T14:41:12;4.20;;;2.70;;
56419;SDS011;42323;52.170;7.538;2023-06-10T14:43:39;5.88;;;3.00;;
56419;SDS011;42323;52.170;7.538;2023-06-10T14:46:06;5.72;;;3.10;;
56419;SDS011;42323;52.170;7.538;2023-06-10T14:48:35;5.75;;;3.63;;
56419;SDS011;42323;52.170;7.538;2023-06-10T14:51:02;5.35;;;3.20;;
56419;SDS011;42323;52.170;7.538;2023-06-10T14:53:29;3.63;;;2.78;;
56419;SDS011;42323;52.170;7.538;2023-06-10T14:55:56;3.75;;;2.85;;
56419;SDS011;42323;52.170;7.538;2023-06-10T14:58:23;3.60;;;2.80;;
56419;SDS011;42323;52.170;7.538;2023-06-10T15:00:49;4.38;;;3.00;;
56419;SDS011;42323;52.170;7.538;2023-06-10T15:03:16;3.90;;;2.97;;
56419;SDS011;42323;52.170;7.538;2023-06-10T15:05:43;3.85;;;3.00;;
56419;SDS011;42323;52.170;7.538;2023-06-10T15:08:09;4.63;;;3.03;;
56419;SDS011;42323;52.170;7.538;2023-06-10T15:10:37;3.55;;;3.00;;
56419;SDS011;42323;52.170;7.538;2023-06-10T15:13:13;5.32;;;3.40;;
56419;SDS011;42323;52.170;7.538;2023-06-10T15:15:42;4.40;;;2.70;;
56419;SDS011;42323;52.170;7.538;2023-06-10T15:18:09;3.55;;;3.10;;
56419;SDS011;42323;52.170;7.538;2023-06-10T15:20:36;5.10;;;2.90;;
56419;SDS011;42323;52.170;7.538;2023-06-10T15:23:03;3.92;;;3.17;;
56419;SDS011;42323;52.170;7.538;2023-06-10T15:25:29;3.55;;;2.60;;